sensor_id;sensor_type;location;lat;lon;timestamp;pressure;altitude;pressure_sealevel;temperature;humidity
12195;BME280;27023;42.680;23.132;2022-11-03T00:00:31;92667.41;;;14.21;54.49
12195;BME280;27023;42.680;23.132;2022-11-03T00:02:58;92665.53;;;14.22;54.30
12195;BME280;27023;42.680;23.132;2022-11-03T00:05:25;92665.88;;;14.20;56.75
12195;BME280;27023;42.680;23.132;2022-11-03T00:08:09;92669.94;;;14.14;55.93
12195;BME280;27023;42.680;23.132;2022-11-03T00:10:36;92656.41;;;14.00;56.60
12195;BME280;27023;42.680;23.132;2022-11-03T00:13:02;92672.44;;;14.07;55.83
12195;BME280;27023;42.680;23.132;2022-11-03T00:15:29;92680.53;;;14.14;56.52
12195;BME280;27023;42.680;23.132;2022-11-03T00:17:57;92664.50;;;14.07;56.30
12195;BME280;27023;42.680;23.132;2022-11-03T00:20:24;92670.75;;;14.18;58.50
12195;BME280;27023;42.680;23.132;2022-11-03T00:22:51;92676.25;;;14.29;57.53
12195;BME280;27023;42.680;23.132;2022-11-03T00:25:17;92679.91;;;14.21;57.84
12195;BME280;27023;42.680;23.132;2022-11-03T00:27:44;92678.44;;;14.23;58.27
12195;BME280;27023;42.680;23.132;2022-11-03T00:30:11;92667.56;;;14.09;56.79
12195;BME280;27023;42.680;23.132;2022-11-03T00:32:38;92672.31;;;14.19;57.78
12195;BME280;27023;42.680;23.132;2022-11-03T00:35:07;92680.66;;;14.21;56.43
12195;BME280;27023;42.680;23.132;2022-11-03T00:37:33;92677.94;;;14.41;54.52
12195;BME280;27023;42.680;23.132;2022-11-03T00:40:00;92675.66;;;14.16;60.13
12195;BME280;27023;42.680;23.132;2022-11-03T00:42:26;92688.84;;;14.13;59.42
12195;BME280;27023;42.680;23.132;2022-11-03T00:44:53;92674.78;;;14.31;61.75
12195;BME280;27023;42.680;23.132;2022-11-03T00:47:20;92680.06;;;14.31;58.67
12195;BME280;27023;42.680;23.132;2022-11-03T00:49:46;92687.38;;;14.15;57.86
12195;BME280;27023;42.680;23.132;2022-11-03T00:52:14;92686.66;;;14.18;60.43
12195;BME280;27023;42.680;23.132;2022-11-03T00:54:41;92681.22;;;14.11;57.89
12195;BME280;27023;42.680;23.132;2022-11-03T00:57:08;92679.84;;;14.17;61.89
12195;BME280;27023;42.680;23.132;2022-11-03T00:59:34;92686.47;;;14.08;57.62
12195;BME280;27023;42.680;23.132;2022-11-03T01:02:01;92681.63;;;14.55;59.74
12195;BME280;27023;42.680;23.132;2022-11-03T01:04:28;92680.13;;;14.81;56.45
12195;BME280;27023;42.680;23.132;2022-11-03T01:07:12;92672.75;;;14.93;56.72
12195;BME280;27023;42.680;23.132;2022-11-03T01:09:40;92678.56;;;15.03;60.53
12195;BME280;27023;42.680;23.132;2022-11-03T01:12:10;92667.91;;;14.76;58.05
12195;BME280;27023;42.680;23.132;2022-11-03T01:14:38;92680.06;;;14.31;61.90
12195;BME280;27023;42.680;23.132;2022-11-03T01:17:06;92665.63;;;14.29;62.95
12195;BME280;27023;42.680;23.132;2022-11-03T01:19:33;92673.06;;;14.20;62.68
12195;BME280;27023;42.680;23.132;2022-11-03T01:22:00;92671.47;;;14.61;61.80
12195;BME280;27023;42.680;23.132;2022-11-03T01:24:26;92667.19;;;14.79;61.17
12195;BME280;27023;42.680;23.132;2022-11-03T01:26:54;92668.59;;;14.96;60.79
12195;BME280;27023;42.680;23.132;2022-11-03T01:29:21;92672.75;;;14.93;61.19
12195;BME280;27023;42.680;23.132;2022-11-03T01:31:48;92674.56;;;15.16;60.24
12195;BME280;27023;42.680;23.132;2022-11-03T01:34:16;92666.78;;;15.30;59.81
12195;BME280;27023;42.680;23.132;2022-11-03T01:36:44;92670.16;;;15.27;59.90
12195;BME280;27023;42.680;23.132;2022-11-03T01:39:11;92665.19;;;14.96;62.66
12195;BME280;27023;42.680;23.132;2022-11-03T01:41:39;92665.19;;;14.46;64.27
12195;BME280;27023;42.680;23.132;2022-11-03T01:44:35;92667.19;;;14.11;65.35
12195;BME280;27023;42.680;23.132;2022-11-03T01:47:07;92662.34;;;14.13;67.62
12195;BME280;27023;42.680;23.132;2022-11-03T01:49:38;92671.78;;;13.91;67.69
12195;BME280;27023;42.680;23.132;2022-11-03T01:52:10;92674.38;;;13.87;68.93
12195;BME280;27023;42.680;23.132;2022-11-03T01:54:41;92688.81;;;13.71;70.78
12195;BME280;27023;42.680;23.132;2022-11-03T01:57:17;92687.16;;;13.43;70.92
12195;BME280;27023;42.680;23.132;2022-11-03T01:59:47;92683.03;;;13.46;70.45
12195;BME280;27023;42.680;23.132;2022-11-03T02:02:14;92684.84;;;13.42;72.87
12195;BME280;27023;42.680;23.132;2022-11-03T02:04:41;92673.00;;;13.74;68.21
12195;BME280;27023;42.680;23.132;2022-11-03T02:07:14;92679.56;;;13.61;71.25
12195;BME280;27023;42.680;23.132;2022-11-03T02:09:43;92679.91;;;13.59;69.42
12195;BME280;27023;42.680;23.132;2022-11-03T02:12:10;92676.13;;;13.80;71.96
12195;BME280;27023;42.680;23.132;2022-11-03T02:14:40;92679.59;;;13.84;71.38
12195;BME280;27023;42.680;23.132;2022-11-03T02:17:12;92676.81;;;13.77;69.53
12195;BME280;27023;42.680;23.132;2022-11-03T02:19:42;92681.16;;;13.65;70.88
12195;BME280;27023;42.680;23.132;2022-11-03T02:22:28;92676.69;;;13.70;71.56
12195;BME280;27023;42.680;23.132;2022-11-03T02:25:03;92682.13;;;13.57;69.78
12195;BME280;27023;42.680;23.132;2022-11-03T02:27:34;92690.00;;;13.54;74.61
12195;BME280;27023;42.680;23.132;2022-11-03T02:30:01;92687.94;;;13.28;73.07
12195;BME280;27023;42.680;23.132;2022-11-03T02:32:31;92689.38;;;13.41;74.27
12195;BME280;27023;42.680;23.132;2022-11-03T02:35:04;92683.91;;;13.34;73.22
12195;BME280;27023;42.680;23.132;2022-11-03T02:37:36;92692.44;;;13.43;74.61
12195;BME280;27023;42.680;23.132;2022-11-03T02:40:08;92689.00;;;13.23;71.79
12195;BME280;27023;42.680;23.132;2022-11-03T02:42:42;92685.09;;;13.36;76.02
12195;BME280;27023;42.680;23.132;2022-11-03T02:45:13;92687.75;;;13.36;75.81
12195;BME280;27023;42.680;23.132;2022-11-03T02:47:41;92679.25;;;13.12;74.66
12195;BME280;27023;42.680;23.132;2022-11-03T02:50:08;92680.44;;;13.14;72.77
12195;BME280;27023;42.680;23.132;2022-11-03T02:52:37;92683.09;;;13.49;70.27
12195;BME280;27023;42.680;23.132;2022-11-03T02:55:09;92685.19;;;13.40;74.85
12195;BME280;27023;42.680;23.132;2022-11-03T02:57:42;92687.03;;;13.20;72.46
12195;BME280;27023;42.680;23.132;2022-11-03T03:00:11;92684.31;;;13.36;71.48
12195;BME280;27023;42.680;23.132;2022-11-03T03:02:43;92674.09;;;13.73;69.53
12195;BME280;27023;42.680;23.132;2022-11-03T03:05:14;92668.84;;;13.96;69.13
12195;BME280;27023;42.680;23.132;2022-11-03T03:07:45;92674.13;;;13.96;71.09
12195;BME280;27023;42.680;23.132;2022-11-03T03:10:17;92674.59;;;13.79;71.32
12195;BME280;27023;42.680;23.132;2022-11-03T03:12:48;92675.66;;;13.97;72.26
12195;BME280;27023;42.680;23.132;2022-11-03T03:15:17;92681.25;;;13.92;72.46
12195;BME280;27023;42.680;23.132;2022-11-03T03:17:50;92688.63;;;13.60;71.80
12195;BME280;27023;42.680;23.132;2022-11-03T03:20:21;92687.25;;;13.31;73.15
12195;BME280;27023;42.680;23.132;2022-11-03T03:22:54;92682.50;;;13.21;74.25
12195;BME280;27023;42.680;23.132;2022-11-03T03:25:25;92686.84;;;13.13;74.75
12195;BME280;27023;42.680;23.132;2022-11-03T03:27:58;92678.28;;;13.00;77.25
12195;BME280;27023;42.680;23.132;2022-11-03T03:30:28;92679.69;;;12.79;78.93
12195;BME280;27023;42.680;23.132;2022-11-03T03:32:56;92672.09;;;12.61;78.36
12195;BME280;27023;42.680;23.132;2022-11-03T03:35:28;92681.47;;;12.59;81.15
12195;BME280;27023;42.680;23.132;2022-11-03T03:38:00;92676.53;;;12.57;77.58
12195;BME280;27023;42.680;23.132;2022-11-03T03:40:30;92683.03;;;12.44;80.77
12195;BME280;27023;42.680;23.132;2022-11-03T03:43:03;92681.81;;;12.57;80.80
12195;BME280;27023;42.680;23.132;2022-11-03T03:45:33;92694.81;;;12.31;80.97
12195;BME280;27023;42.680;23.132;2022-11-03T03:48:01;92684.31;;;12.34;83.02
12195;BME280;27023;42.680;23.132;2022-11-03T03:50:33;92694.88;;;12.19;82.08
12195;BME280;27023;42.680;23.132;2022-11-03T03:53:02;92695.22;;;12.17;83.13
12195;BME280;27023;42.680;23.132;2022-11-03T03:55:33;92687.72;;;12.19;83.36
12195;BME280;27023;42.680;23.132;2022-11-03T03:58:03;92679.28;;;12.29;82.71
12195;BME280;27023;42.680;23.132;2022-11-03T04:00:30;92676.22;;;12.12;84.36
12195;BME280;27023;42.680;23.132;2022-11-03T04:02:58;92686.53;;;12.17;83.38
12195;BME280;27023;42.680;23.132;2022-11-03T04:05:25;92680.97;;;11.90;85.15
12195;BME280;27023;42.680;23.132;2022-11-03T04:07:52;92677.13;;;11.75;84.35
12195;BME280;27023;42.680;23.132;2022-11-03T04:10:20;92683.13;;;11.60;88.32
12195;BME280;27023;42.680;23.132;2022-11-03T04:12:48;92681.69;;;11.63;88.75
12195;BME280;27023;42.680;23.132;2022-11-03T04:15:34;92677.19;;;11.63;88.88
12195;BME280;27023;42.680;23.132;2022-11-03T04:18:20;92672.47;;;11.57;88.87
12195;BME280;27023;42.680;23.132;2022-11-03T04:21:05;92672.19;;;11.46;90.34
12195;BME280;27023;42.680;23.132;2022-11-03T04:23:50;92677.03;;;11.44;88.99
12195;BME280;27023;42.680;23.132;2022-11-03T04:26:18;92674.25;;;11.25;91.18
12195;BME280;27023;42.680;23.132;2022-11-03T04:28:47;92676.47;;;11.23;91.19
12195;BME280;27023;42.680;23.132;2022-11-03T04:31:17;92675.78;;;11.13;92.17
12195;BME280;27023;42.680;23.132;2022-11-03T04:33:44;92679.66;;;11.16;93.79
12195;BME280;27023;42.680;23.132;2022-11-03T04:36:15;92671.72;;;11.28;93.53
12195;BME280;27023;42.680;23.132;2022-11-03T04:38:43;92669.88;;;11.17;93.78
12195;BME280;27023;42.680;23.132;2022-11-03T04:41:14;92671.63;;;11.12;91.65
12195;BME280;27023;42.680;23.132;2022-11-03T04:43:41;92670.41;;;11.22;93.14
12195;BME280;27023;42.680;23.132;2022-11-03T04:46:10;92673.50;;;11.12;91.87
12195;BME280;27023;42.680;23.132;2022-11-03T04:48:39;92671.75;;;11.04;94.21
12195;BME280;27023;42.680;23.132;2022-11-03T04:51:12;92674.06;;;11.05;92.67
12195;BME280;27023;42.680;23.132;2022-11-03T04:53:45;92673.19;;;11.01;94.07
12195;BME280;27023;42.680;23.132;2022-11-03T04:56:14;92672.53;;;11.04;91.86
12195;BME280;27023;42.680;23.132;2022-11-03T04:58:41;92680.09;;;11.06;90.88
12195;BME280;27023;42.680;23.132;2022-11-03T05:01:11;92676.25;;;11.03;94.23
12195;BME280;27023;42.680;23.132;2022-11-03T05:03:41;92679.53;;;11.12;90.79
12195;BME280;27023;42.680;23.132;2022-11-03T05:06:11;92675.59;;;11.06;91.97
12195;BME280;27023;42.680;23.132;2022-11-03T05:08:40;92678.91;;;11.16;93.03
12195;BME280;27023;42.680;23.132;2022-11-03T05:11:17;92684.63;;;11.05;93.08
12195;BME280;27023;42.680;23.132;2022-11-03T05:13:45;92678.00;;;11.11;90.66
12195;BME280;27023;42.680;23.132;2022-11-03T05:16:12;92679.97;;;11.14;92.73
12195;BME280;27023;42.680;23.132;2022-11-03T05:18:42;92678.66;;;11.08;93.55
12195;BME280;27023;42.680;23.132;2022-11-03T05:21:12;92680.44;;;11.17;91.05
12195;BME280;27023;42.680;23.132;2022-11-03T05:23:41;92679.53;;;11.25;92.43
12195;BME280;27023;42.680;23.132;2022-11-03T05:26:13;92681.31;;;11.21;92.74
12195;BME280;27023;42.680;23.132;2022-11-03T05:28:41;92682.59;;;11.27;91.79
12195;BME280;27023;42.680;23.132;2022-11-03T05:31:21;92681.69;;;11.35;88.67
12195;BME280;27023;42.680;23.132;2022-11-03T05:33:51;92679.34;;;11.45;87.91
12195;BME280;27023;42.680;23.132;2022-11-03T05:36:20;92681.66;;;11.47;89.69
12195;BME280;27023;42.680;23.132;2022-11-03T05:38:48;92678.81;;;11.40;90.50
12195;BME280;27023;42.680;23.132;2022-11-03T05:41:20;92691.88;;;11.49;88.32
12195;BME280;27023;42.680;23.132;2022-11-03T05:43:54;92692.16;;;11.59;87.07
12195;BME280;27023;42.680;23.132;2022-11-03T05:46:23;92699.41;;;11.62;86.08
12195;BME280;27023;42.680;23.132;2022-11-03T05:48:51;92709.91;;;11.74;85.16
12195;BME280;27023;42.680;23.132;2022-11-03T05:51:21;92712.53;;;11.87;84.27
12195;BME280;27023;42.680;23.132;2022-11-03T05:53:50;92709.25;;;11.90;85.79
12195;BME280;27023;42.680;23.132;2022-11-03T05:56:21;92711.41;;;12.00;85.35
12195;BME280;27023;42.680;23.132;2022-11-03T05:58:51;92703.03;;;11.98;85.74
12195;BME280;27023;42.680;23.132;2022-11-03T06:01:23;92712.00;;;12.09;84.53
12195;BME280;27023;42.680;23.132;2022-11-03T06:03:52;92717.66;;;12.23;81.79
12195;BME280;27023;42.680;23.132;2022-11-03T06:06:22;92726.34;;;12.39;81.30
12195;BME280;27023;42.680;23.132;2022-11-03T06:08:50;92719.28;;;12.44;81.93
12195;BME280;27023;42.680;23.132;2022-11-03T06:11:24;92735.38;;;12.54;80.53
12195;BME280;27023;42.680;23.132;2022-11-03T06:13:54;92727.41;;;12.66;79.12
12195;BME280;27023;42.680;23.132;2022-11-03T06:16:37;92729.25;;;12.82;77.85
12195;BME280;27023;42.680;23.132;2022-11-03T06:19:18;92731.97;;;13.01;77.04
12195;BME280;27023;42.680;23.132;2022-11-03T06:21:46;92740.06;;;13.24;79.57
12195;BME280;27023;42.680;23.132;2022-11-03T06:24:14;92739.44;;;13.15;77.27
12195;BME280;27023;42.680;23.132;2022-11-03T06:26:44;92740.31;;;13.19;75.62
12195;BME280;27023;42.680;23.132;2022-11-03T06:29:14;92743.69;;;13.35;74.06
12195;BME280;27023;42.680;23.132;2022-11-03T06:31:42;92739.84;;;13.48;72.70
12195;BME280;27023;42.680;23.132;2022-11-03T06:34:29;92737.75;;;13.57;72.87
12195;BME280;27023;42.680;23.132;2022-11-03T06:36:58;92744.03;;;13.68;72.62
12195;BME280;27023;42.680;23.132;2022-11-03T06:39:27;92744.94;;;13.76;72.20
12195;BME280;27023;42.680;23.132;2022-11-03T06:41:53;92744.31;;;13.83;71.40
12195;BME280;27023;42.680;23.132;2022-11-03T06:44:22;92750.56;;;13.94;71.31
12195;BME280;27023;42.680;23.132;2022-11-03T06:46:50;92743.25;;;14.07;71.24
12195;BME280;27023;42.680;23.132;2022-11-03T06:49:27;92746.66;;;14.26;71.40
12195;BME280;27023;42.680;23.132;2022-11-03T06:51:54;92754.84;;;14.60;70.16
12195;BME280;27023;42.680;23.132;2022-11-03T06:54:21;92745.75;;;14.61;69.94
12195;BME280;27023;42.680;23.132;2022-11-03T06:56:48;92751.47;;;14.86;67.97
12195;BME280;27023;42.680;23.132;2022-11-03T06:59:15;92748.81;;;15.09;67.09
12195;BME280;27023;42.680;23.132;2022-11-03T07:01:45;92743.28;;;14.94;67.33
12195;BME280;27023;42.680;23.132;2022-11-03T07:04:16;92743.09;;;14.84;67.45
12195;BME280;27023;42.680;23.132;2022-11-03T07:06:46;92738.91;;;15.06;66.98
12195;BME280;27023;42.680;23.132;2022-11-03T07:09:15;92735.94;;;15.11;66.40
12195;BME280;27023;42.680;23.132;2022-11-03T07:11:46;92734.72;;;15.31;65.53
12195;BME280;27023;42.680;23.132;2022-11-03T07:14:17;92735.00;;;15.52;65.10
12195;BME280;27023;42.680;23.132;2022-11-03T07:16:46;92732.38;;;15.82;64.58
12195;BME280;27023;42.680;23.132;2022-11-03T07:19:18;92730.72;;;16.04;64.06
12195;BME280;27023;42.680;23.132;2022-11-03T07:21:48;92728.47;;;16.06;64.31
12195;BME280;27023;42.680;23.132;2022-11-03T07:24:19;92733.78;;;16.06;64.48
12195;BME280;27023;42.680;23.132;2022-11-03T07:26:48;92742.31;;;16.23;64.62
12195;BME280;27023;42.680;23.132;2022-11-03T07:29:19;92738.13;;;16.21;64.72
12195;BME280;27023;42.680;23.132;2022-11-03T07:31:48;92737.09;;;15.96;66.73
12195;BME280;27023;42.680;23.132;2022-11-03T07:34:19;92740.34;;;15.82;67.24
12195;BME280;27023;42.680;23.132;2022-11-03T07:36:48;92733.06;;;15.76;67.90
12195;BME280;27023;42.680;23.132;2022-11-03T07:39:18;92741.19;;;15.90;67.66
12195;BME280;27023;42.680;23.132;2022-11-03T07:41:46;92744.75;;;16.01;66.12
12195;BME280;27023;42.680;23.132;2022-11-03T07:44:15;92733.31;;;15.97;66.28
12195;BME280;27023;42.680;23.132;2022-11-03T07:46:45;92734.41;;;15.63;68.06
12195;BME280;27023;42.680;23.132;2022-11-03T07:49:20;92726.44;;;15.96;66.08
12195;BME280;27023;42.680;23.132;2022-11-03T07:51:51;92734.09;;;16.01;66.14
12195;BME280;27023;42.680;23.132;2022-11-03T07:54:20;92730.78;;;16.11;66.18
12195;BME280;27023;42.680;23.132;2022-11-03T07:56:52;92719.03;;;15.79;67.43
12195;BME280;27023;42.680;23.132;2022-11-03T07:59:22;92724.03;;;15.84;66.59
12195;BME280;27023;42.680;23.132;2022-11-03T08:01:53;92713.63;;;16.05;65.39
12195;BME280;27023;42.680;23.132;2022-11-03T08:04:23;92725.47;;;15.78;67.88
12195;BME280;27023;42.680;23.132;2022-11-03T08:06:52;92720.53;;;16.10;65.45
12195;BME280;27023;42.680;23.132;2022-11-03T08:09:18;92716.75;;;16.11;66.21
12195;BME280;27023;42.680;23.132;2022-11-03T08:11:45;92711.63;;;15.95;66.47
12195;BME280;27023;42.680;23.132;2022-11-03T08:14:13;92712.09;;;16.04;66.53
12195;BME280;27023;42.680;23.132;2022-11-03T08:16:39;92710.78;;;16.25;63.42
12195;BME280;27023;42.680;23.132;2022-11-03T08:19:06;92710.75;;;16.21;64.64
12195;BME280;27023;42.680;23.132;2022-11-03T08:21:33;92711.78;;;16.09;65.28
12195;BME280;27023;42.680;23.132;2022-11-03T08:24:02;92709.34;;;16.31;64.07
12195;BME280;27023;42.680;23.132;2022-11-03T08:26:28;92714.41;;;16.43;63.40
12195;BME280;27023;42.680;23.132;2022-11-03T08:28:55;92709.16;;;16.50;63.26
12195;BME280;27023;42.680;23.132;2022-11-03T08:31:22;92706.63;;;16.64;63.03
12195;BME280;27023;42.680;23.132;2022-11-03T08:33:48;92710.91;;;16.76;62.92
12195;BME280;27023;42.680;23.132;2022-11-03T08:36:15;92701.63;;;16.59;64.12
12195;BME280;27023;42.680;23.132;2022-11-03T08:38:42;92704.44;;;16.73;62.31
12195;BME280;27023;42.680;23.132;2022-11-03T08:41:10;92711.78;;;16.91;61.40
12195;BME280;27023;42.680;23.132;2022-11-03T08:43:36;92707.34;;;17.09;60.21
12195;BME280;27023;42.680;23.132;2022-11-03T08:46:03;92709.41;;;17.30;59.79
12195;BME280;27023;42.680;23.132;2022-11-03T08:48:30;92710.97;;;17.34;60.55
12195;BME280;27023;42.680;23.132;2022-11-03T08:50:57;92713.19;;;17.25;61.39
12195;BME280;27023;42.680;23.132;2022-11-03T08:53:25;92706.34;;;17.24;62.32
12195;BME280;27023;42.680;23.132;2022-11-03T08:55:52;92710.41;;;17.69;60.32
12195;BME280;27023;42.680;23.132;2022-11-03T08:58:21;92707.41;;;17.82;59.43
12195;BME280;27023;42.680;23.132;2022-11-03T09:00:48;92701.47;;;18.24;57.90
12195;BME280;27023;42.680;23.132;2022-11-03T09:05:56;92704.44;;;17.94;60.64
12195;BME280;27023;42.680;23.132;2022-11-03T09:08:23;92701.47;;;18.20;59.41
12195;BME280;27023;42.680;23.132;2022-11-03T09:10:49;92703.72;;;18.15;59.90
12195;BME280;27023;42.680;23.132;2022-11-03T09:13:16;92708.31;;;18.25;58.78
12195;BME280;27023;42.680;23.132;2022-11-03T09:15:44;92699.88;;;17.94;60.74
12195;BME280;27023;42.680;23.132;2022-11-03T09:18:11;92694.81;;;17.75;61.70
12195;BME280;27023;42.680;23.132;2022-11-03T09:20:37;92689.94;;;17.91;60.04
12195;BME280;27023;42.680;23.132;2022-11-03T09:23:04;92686.16;;;18.03;59.92
12195;BME280;27023;42.680;23.132;2022-11-03T09:25:31;92687.19;;;17.70;61.53
12195;BME280;27023;42.680;23.132;2022-11-03T09:27:58;92682.59;;;17.70;61.15
12195;BME280;27023;42.680;23.132;2022-11-03T09:30:24;92662.50;;;17.87;60.69
12195;BME280;27023;42.680;23.132;2022-11-03T09:32:52;92683.13;;;18.01;59.78
12195;BME280;27023;42.680;23.132;2022-11-03T09:35:19;92675.50;;;17.99;60.32
12195;BME280;27023;42.680;23.132;2022-11-03T09:37:46;92678.53;;;18.01;60.33
12195;BME280;27023;42.680;23.132;2022-11-03T09:40:14;92677.75;;;17.90;60.57
12195;BME280;27023;42.680;23.132;2022-11-03T09:42:42;92673.59;;;18.00;59.06
12195;BME280;27023;42.680;23.132;2022-11-03T09:45:09;92666.34;;;18.00;59.58
12195;BME280;27023;42.680;23.132;2022-11-03T09:47:38;92669.06;;;18.15;59.02
12195;BME280;27023;42.680;23.132;2022-11-03T09:50:11;92663.81;;;18.75;56.33
12195;BME280;27023;42.680;23.132;2022-11-03T09:52:39;92660.31;;;19.21;55.02
12195;BME280;27023;42.680;23.132;2022-11-03T09:55:12;92658.41;;;19.25;53.64
12195;BME280;27023;42.680;23.132;2022-11-03T09:57:40;92646.59;;;19.19;53.57
12195;BME280;27023;42.680;23.132;2022-11-03T10:00:14;92646.22;;;19.13;53.12
12195;BME280;27023;42.680;23.132;2022-11-03T10:02:42;92646.97;;;19.10;52.64
12195;BME280;27023;42.680;23.132;2022-11-03T10:05:13;92643.19;;;18.97;53.52
12195;BME280;27023;42.680;23.132;2022-11-03T10:07:41;92643.59;;;18.92;52.43
12195;BME280;27023;42.680;23.132;2022-11-03T10:10:14;92637.88;;;18.83;52.84
12195;BME280;27023;42.680;23.132;2022-11-03T10:12:42;92639.78;;;18.82;52.16
12195;BME280;27023;42.680;23.132;2022-11-03T10:15:13;92630.59;;;18.97;50.53
12195;BME280;27023;42.680;23.132;2022-11-03T10:17:40;92627.91;;;19.01;49.40
12195;BME280;27023;42.680;23.132;2022-11-03T10:20:10;92623.38;;;18.91;50.48
12195;BME280;27023;42.680;23.132;2022-11-03T10:22:39;92620.72;;;18.69;51.64
12195;BME280;27023;42.680;23.132;2022-11-03T10:25:29;92618.78;;;18.81;51.75
12195;BME280;27023;42.680;23.132;2022-11-03T10:28:12;92614.59;;;18.94;49.33
12195;BME280;27023;42.680;23.132;2022-11-03T10:30:49;92606.94;;;19.03;46.36
12195;BME280;27023;42.680;23.132;2022-11-03T10:33:28;92607.63;;;19.21;45.79
12195;BME280;27023;42.680;23.132;2022-11-03T10:35:56;92595.06;;;19.11;48.65
12195;BME280;27023;42.680;23.132;2022-11-03T10:38:27;92600.41;;;19.11;45.42
12195;BME280;27023;42.680;23.132;2022-11-03T10:40:55;92596.63;;;19.05;47.14
12195;BME280;27023;42.680;23.132;2022-11-03T10:43:22;92594.66;;;19.20;47.33
12195;BME280;27023;42.680;23.132;2022-11-03T10:45:48;92586.19;;;19.57;47.63
12195;BME280;27023;42.680;23.132;2022-11-03T10:48:20;92579.84;;;19.95;46.87
12195;BME280;27023;42.680;23.132;2022-11-03T10:50:47;92575.13;;;20.21;46.28
12195;BME280;27023;42.680;23.132;2022-11-03T10:53:16;92574.44;;;20.10;45.42
12195;BME280;27023;42.680;23.132;2022-11-03T10:55:46;92576.81;;;19.93;46.03
12195;BME280;27023;42.680;23.132;2022-11-03T10:58:13;92576.78;;;19.97;45.93
12195;BME280;27023;42.680;23.132;2022-11-03T11:00:40;92557.78;;;19.81;46.91
12195;BME280;27023;42.680;23.132;2022-11-03T11:03:07;92560.16;;;19.68;46.34
12195;BME280;27023;42.680;23.132;2022-11-03T11:05:34;92554.75;;;19.75;46.02
12195;BME280;27023;42.680;23.132;2022-11-03T11:08:01;92551.31;;;19.75;45.74
12195;BME280;27023;42.680;23.132;2022-11-03T11:10:29;92547.13;;;19.74;46.12
12195;BME280;27023;42.680;23.132;2022-11-03T11:13:12;92551.72;;;19.73;47.31
12195;BME280;27023;42.680;23.132;2022-11-03T11:15:50;92550.00;;;20.08;45.57
12195;BME280;27023;42.680;23.132;2022-11-03T11:21:59;92541.03;;;19.73;45.96
12195;BME280;27023;42.680;23.132;2022-11-03T11:24:55;92542.53;;;19.74;45.58
12195;BME280;27023;42.680;23.132;2022-11-03T11:27:45;92531.16;;;19.63;44.86
12195;BME280;27023;42.680;23.132;2022-11-03T11:33:43;92522.59;;;19.86;45.86
12195;BME280;27023;42.680;23.132;2022-11-03T11:36:27;92523.22;;;20.08;43.98
12195;BME280;27023;42.680;23.132;2022-11-03T11:38:55;92514.84;;;20.02;42.78
12195;BME280;27023;42.680;23.132;2022-11-03T11:44:45;92506.94;;;19.84;44.20
12195;BME280;27023;42.680;23.132;2022-11-03T11:50:28;92499.88;;;19.53;44.17
12195;BME280;27023;42.680;23.132;2022-11-03T11:53:08;92503.75;;;19.38;44.38
12195;BME280;27023;42.680;23.132;2022-11-03T11:55:45;92500.72;;;19.28;44.53
12195;BME280;27023;42.680;23.132;2022-11-03T11:58:21;92493.50;;;19.25;44.90
12195;BME280;27023;42.680;23.132;2022-11-03T12:00:52;92489.66;;;19.33;45.01
12195;BME280;27023;42.680;23.132;2022-11-03T12:03:24;92495.69;;;19.45;44.68
12195;BME280;27023;42.680;23.132;2022-11-03T12:05:53;92498.75;;;19.43;44.25
12195;BME280;27023;42.680;23.132;2022-11-03T12:08:25;92494.22;;;19.36;44.55
12195;BME280;27023;42.680;23.132;2022-11-03T12:10:55;92482.47;;;19.16;44.69
12195;BME280;27023;42.680;23.132;2022-11-03T12:13:49;92478.69;;;19.07;45.37
12195;BME280;27023;42.680;23.132;2022-11-03T12:16:27;92474.03;;;19.25;44.70
12195;BME280;27023;42.680;23.132;2022-11-03T12:18:54;92473.63;;;19.26;45.52
12195;BME280;27023;42.680;23.132;2022-11-03T12:21:55;92470.88;;;19.48;45.22
12195;BME280;27023;42.680;23.132;2022-11-03T12:24:26;92463.97;;;19.54;45.13
12195;BME280;27023;42.680;23.132;2022-11-03T12:27:01;92464.75;;;19.54;45.23
12195;BME280;27023;42.680;23.132;2022-11-03T12:29:29;92464.38;;;19.52;44.92
12195;BME280;27023;42.680;23.132;2022-11-03T12:31:55;92457.19;;;19.31;44.41
12195;BME280;27023;42.680;23.132;2022-11-03T12:34:22;92461.00;;;19.30;44.75
12195;BME280;27023;42.680;23.132;2022-11-03T12:36:49;92451.88;;;19.24;44.64
12195;BME280;27023;42.680;23.132;2022-11-03T12:39:17;92454.56;;;19.21;44.64
12195;BME280;27023;42.680;23.132;2022-11-03T12:41:43;92450.97;;;18.54;51.34
12195;BME280;27023;42.680;23.132;2022-11-03T12:44:10;92451.00;;;18.68;49.21
12195;BME280;27023;42.680;23.132;2022-11-03T12:46:37;92454.41;;;18.76;50.52
12195;BME280;27023;42.680;23.132;2022-11-03T12:49:03;92443.81;;;18.30;53.96
12195;BME280;27023;42.680;23.132;2022-11-03T12:51:30;92450.97;;;18.54;51.43
12195;BME280;27023;42.680;23.132;2022-11-03T12:53:57;92444.19;;;18.25;52.21
12195;BME280;27023;42.680;23.132;2022-11-03T12:56:25;92432.38;;;18.19;52.78
12195;BME280;27023;42.680;23.132;2022-11-03T12:58:52;92445.34;;;18.24;52.93
12195;BME280;27023;42.680;23.132;2022-11-03T13:01:19;92437.38;;;17.95;53.65
12195;BME280;27023;42.680;23.132;2022-11-03T13:03:46;92430.09;;;18.17;55.06
12195;BME280;27023;42.680;23.132;2022-11-03T13:06:13;92439.63;;;18.15;54.58
12195;BME280;27023;42.680;23.132;2022-11-03T13:08:40;92431.25;;;18.13;55.30
12195;BME280;27023;42.680;23.132;2022-11-03T13:11:06;92434.72;;;17.88;56.47
12195;BME280;27023;42.680;23.132;2022-11-03T13:13:55;92430.13;;;17.74;57.78
12195;BME280;27023;42.680;23.132;2022-11-03T13:16:22;92427.09;;;17.97;55.49
12195;BME280;27023;42.680;23.132;2022-11-03T13:18:49;92425.94;;;17.66;55.03
12195;BME280;27023;42.680;23.132;2022-11-03T13:21:16;92427.06;;;17.51;57.38